Terminal Aerodrome Forecast
Issued by NWS

Home | Current Version | Previous Version | Text Only | Print | Product List | Glossary On
Versions: 1 2 3 4 5 6 7 8 9 10 11 12 13 14 15 16 17 18 19 20 21 22 23
000
FTUS43 KDLH 212057 AAA
TAFHIB
TAF AMD
KHIB 212057Z 2121/2218 05005KT 6SM -RA BR OVC003
     FM220300 04003KT 3/4SM -DZ BR OVC002
     FM220600 35003KT 3/4SM -DZ BR OVC003
     FM221600 35003KT 2SM BR OVC004=

USA.gov is the U.S. government's official web portal to all federal, state and local government web resources and services.